Time;durP1;ratioP1;P1;durP2;ratioP2;P2;SDS_P1;SDS_P2;PMS_P1;PMS_P2;Temp;Humidity;BMP_temperature;BMP_pressure;BME280_temperature;BME280_humidity;BME280_pressure;Samples;Min_cycle;Max_cycle;Signal;HPM_P1;HPM_P2
2023/04/09 00:00:42;;;;;;;33.47;19.58;;;;;;;;;;4977860;28;20105;-71
2023/04/09 00:03:07;;;;;;;36.65;19.42;;;;;;;;;;4971899;28;20050;-75
2023/04/09 00:05:38;;;;;;;29.00;17.33;;;;;;;;;;4975290;28;20042;-73
2023/04/09 00:08:03;;;;;;;26.85;15.80;;;;;;;;;;4972391;28;20491;-73
2023/04/09 00:10:29;;;;;;;24.70;14.45;;;;;;;;;;4974580;28;20491;-72
2023/04/09 00:12:54;;;;;;;25.83;15.43;;;;;;;;;;4973573;28;20507;-76
2023/04/09 00:15:20;;;;;;;22.08;14.20;;;;;;;;;;4974109;28;20054;-73
2023/04/09 00:17:45;;;;;;;24.27;15.88;;;;;;;;;;4976371;28;20057;-75
2023/04/09 00:20:11;;;;;;;23.83;14.45;;;;;;;;;;4981845;28;20039;-73
2023/04/09 00:22:36;;;;;;;22.50;15.40;;;;;;;;;;4981041;28;20050;-73
2023/04/09 00:25:01;;;;;;;24.10;15.48;;;;;;;;;;4968882;28;20590;-75
2023/04/09 00:27:27;;;;;;;25.52;15.85;;;;;;;;;;4981646;28;20046;-72
2023/04/09 00:29:54;;;;;;;23.58;14.48;;;;;;;;;;4978310;28;20136;-73
2023/04/09 00:32:19;;;;;;;26.80;16.15;;;;;;;;;;4994873;28;20050;-78
2023/04/09 00:34:45;;;;;;;28.02;16.23;;;;;;;;;;4975356;28;20960;-74
2023/04/09 00:37:10;;;;;;;24.77;15.82;;;;;;;;;;4967561;28;20042;-73
2023/04/09 00:39:35;;;;;;;26.42;16.23;;;;;;;;;;4971686;28;20133;-72
2023/04/09 00:42:01;;;;;;;26.38;16.30;;;;;;;;;;4987413;28;20046;-73
2023/04/09 00:44:27;;;;;;;24.35;14.95;;;;;;;;;;4972759;28;20105;-74
2023/04/09 00:46:53;;;;;;;22.90;14.18;;;;;;;;;;4971673;28;20157;-76
2023/04/09 00:49:19;;;;;;;24.40;14.32;;;;;;;;;;4987603;28;20066;-74
2023/04/09 00:51:45;;;;;;;24.63;15.23;;;;;;;;;;4972334;28;20043;-72
2023/04/09 00:54:11;;;;;;;22.88;14.40;;;;;;;;;;4987786;28;21043;-74
2023/04/09 00:56:37;;;;;;;24.88;15.27;;;;;;;;;;4986207;28;20238;-75
2023/04/09 00:59:03;;;;;;;25.00;14.35;;;;;;;;;;4989694;28;20100;-73
2023/04/09 01:01:29;;;;;;;22.33;14.40;;;;;;;;;;4988712;28;20065;-72
2023/04/09 01:03:55;;;;;;;24.52;15.52;;;;;;;;;;4969668;28;20050;-73
2023/04/09 01:06:41;;;;;;;23.92;15.65;;;;;;;;;;4967571;28;20068;-74
2023/04/09 01:09:42;;;;;;;24.15;14.32;;;;;;;;;;4968643;28;20082;-75
2023/04/09 01:12:32;;;;;;;21.73;14.10;;;;;;;;;;4985591;28;20190;-76
2023/04/09 01:15:08;;;;;;;21.80;13.50;;;;;;;;;;4966448;28;20069;-76
2023/04/09 01:17:49;;;;;;;22.45;14.40;;;;;;;;;;4970383;28;20161;-71
2023/04/09 01:20:29;;;;;;;21.52;13.57;;;;;;;;;;4969731;28;20133;-72
2023/04/09 01:23:11;;;;;;;19.13;12.13;;;;;;;;;;4987434;28;20061;-73
2023/04/09 01:25:52;;;;;;;18.58;11.85;;;;;;;;;;4984470;28;20039;-72
2023/04/09 01:28:19;;;;;;;18.90;12.15;;;;;;;;;;4968421;28;20876;-71
2023/04/09 01:30:51;;;;;;;17.67;11.38;;;;;;;;;;4987065;28;21128;-77
2023/04/09 01:33:19;;;;;;;18.02;11.30;;;;;;;;;;4971581;28;20415;-74
2023/04/09 01:35:49;;;;;;;17.63;12.05;;;;;;;;;;4971632;28;20054;-74
2023/04/09 01:38:17;;;;;;;21.90;13.55;;;;;;;;;;4976848;28;20058;-75
2023/04/09 01:40:43;;;;;;;24.75;14.90;;;;;;;;;;4972453;28;20124;-72
2023/04/09 01:43:10;;;;;;;26.60;15.52;;;;;;;;;;4976046;28;20050;-71
2023/04/09 01:45:36;;;;;;;24.90;15.95;;;;;;;;;;4978663;28;20073;-71
2023/04/09 01:48:03;;;;;;;28.25;15.82;;;;;;;;;;4979648;28;20503;-73
2023/04/09 01:50:29;;;;;;;31.63;16.17;;;;;;;;;;4998418;28;20057;-72
2023/04/09 01:52:55;;;;;;;28.42;16.17;;;;;;;;;;4983091;28;20081;-75
2023/04/09 01:55:20;;;;;;;27.63;15.23;;;;;;;;;;4984351;28;20046;-75
2023/04/09 01:57:46;;;;;;;25.13;14.98;;;;;;;;;;4983472;28;20411;-73
2023/04/09 02:00:12;;;;;;;26.90;14.68;;;;;;;;;;4980397;28;20073;-76
2023/04/09 02:03:23;;;;;;;22.88;14.85;;;;;;;;;;4976009;28;20057;-74
2023/04/09 02:06:16;;;;;;;19.88;13.25;;;;;;;;;;4982006;28;20046;-72
2023/04/09 02:08:47;;;;;;;19.67;12.90;;;;;;;;;;4972165;28;20049;-74
2023/04/09 02:11:14;;;;;;;24.07;13.77;;;;;;;;;;4974419;28;20046;-73
2023/04/09 02:13:41;;;;;;;20.67;13.68;;;;;;;;;;4989300;28;20663;-74
2023/04/09 02:16:12;;;;;;;17.90;12.23;;;;;;;;;;4974647;28;20093;-73
2023/04/09 02:18:38;;;;;;;21.40;13.05;;;;;;;;;;4993176;28;21892;-71
2023/04/09 02:21:04;;;;;;;18.48;12.15;;;;;;;;;;4976748;28;20566;-73
2023/04/09 02:23:32;;;;;;;20.60;12.48;;;;;;;;;;4982342;28;20050;-71
2023/04/09 02:25:58;;;;;;;21.20;13.02;;;;;;;;;;4982330;28;20079;-71
2023/04/09 02:28:24;;;;;;;20.63;13.13;;;;;;;;;;4983612;28;20053;-71
2023/04/09 02:30:50;;;;;;;21.23;13.80;;;;;;;;;;4975733;28;20042;-73
2023/04/09 02:33:15;;;;;;;21.55;12.77;;;;;;;;;;4972537;28;20492;-74
2023/04/09 02:35:41;;;;;;;19.25;13.18;;;;;;;;;;4982741;28;20104;-73
2023/04/09 02:38:12;;;;;;;20.42;13.20;;;;;;;;;;4991190;28;20056;-74
2023/04/09 02:40:40;;;;;;;17.23;11.60;;;;;;;;;;4975734;28;20504;-73
2023/04/09 02:43:05;;;;;;;18.08;11.88;;;;;;;;;;4968755;28;20292;-75
2023/04/09 02:45:31;;;;;;;17.23;11.38;;;;;;;;;;4990400;28;20039;-73
2023/04/09 02:47:56;;;;;;;17.88;11.65;;;;;;;;;;4988699;28;20093;-72
2023/04/09 02:50:22;;;;;;;20.67;13.32;;;;;;;;;;4985432;28;20133;-74
2023/04/09 02:52:51;;;;;;;23.85;14.10;;;;;;;;;;4977564;28;20054;-75
2023/04/09 02:55:17;;;;;;;33.40;16.52;;;;;;;;;;4980168;28;20109;-74
2023/04/09 02:57:43;;;;;;;36.08;16.85;;;;;;;;;;4975667;28;20044;-70
2023/04/09 03:00:10;;;;;;;29.23;16.65;;;;;;;;;;4980586;28;20046;-71
2023/04/09 03:02:35;;;;;;;32.63;16.90;;;;;;;;;;4996339;28;20050;-71
2023/04/09 03:05:01;;;;;;;37.10;19.48;;;;;;;;;;4981675;28;20054;-72
2023/04/09 03:07:26;;;;;;;32.42;17.73;;;;;;;;;;4975661;28;20414;-71
2023/04/09 03:09:52;;;;;;;31.35;17.08;;;;;;;;;;4981654;28;20059;-71
2023/04/09 03:12:17;;;;;;;36.00;17.90;;;;;;;;;;4981152;28;20128;-73
2023/04/09 03:14:43;;;;;;;35.85;18.77;;;;;;;;;;4981552;28;20062;-70
2023/04/09 03:17:08;;;;;;;31.48;18.00;;;;;;;;;;4980843;28;20061;-75
2023/04/09 03:19:34;;;;;;;29.00;16.48;;;;;;;;;;4981654;28;20507;-71
2023/04/09 03:21:59;;;;;;;32.75;16.17;;;;;;;;;;4975259;28;20043;-74
2023/04/09 03:24:27;;;;;;;30.77;17.08;;;;;;;;;;4967856;28;20047;-71
2023/04/09 03:26:57;;;;;;;32.05;18.35;;;;;;;;;;4973570;28;20052;-72
2023/04/09 03:29:22;;;;;;;58.25;18.77;;;;;;;;;;4992204;28;20050;-72
2023/04/09 03:31:48;;;;;;;38.33;19.13;;;;;;;;;;4971298;28;20050;-72
2023/04/09 03:34:14;;;;;;;82.45;20.30;;;;;;;;;;4988937;28;20039;-71
2023/04/09 03:36:39;;;;;;;182.68;23.10;;;;;;;;;;4986387;28;20054;-72
2023/04/09 03:39:23;;;;;;;82.13;20.58;;;;;;;;;;4992921;28;20061;-71
2023/04/09 03:41:49;;;;;;;37.22;19.33;;;;;;;;;;4978843;28;20042;-71
2023/04/09 03:44:16;;;;;;;40.35;19.83;;;;;;;;;;4976647;28;20404;-71
2023/04/09 03:46:55;;;;;;;41.40;18.48;;;;;;;;;;4985700;28;20088;-72
2023/04/09 03:49:21;;;;;;;33.38;17.30;;;;;;;;;;4979338;28;20039;-73
2023/04/09 03:51:46;;;;;;;104.60;19.90;;;;;;;;;;4966832;28;20054;-72
2023/04/09 03:54:12;;;;;;;133.98;19.08;;;;;;;;;;4964254;28;20101;-75
2023/04/09 03:56:39;;;;;;;43.40;15.52;;;;;;;;;;4995476;28;20082;-70
2023/04/09 03:59:07;;;;;;;113.80;17.00;;;;;;;;;;4975575;28;20056;-75
2023/04/09 04:01:37;;;;;;;68.88;16.70;;;;;;;;;;4993779;28;20104;-75
2023/04/09 04:04:02;;;;;;;93.07;17.27;;;;;;;;;;4971484;28;20054;-70
2023/04/09 04:06:39;;;;;;;46.58;16.80;;;;;;;;;;4979371;28;20042;-68
2023/04/09 04:09:17;;;;;;;42.63;16.42;;;;;;;;;;4981203;28;20060;-71
2023/04/09 04:11:51;;;;;;;62.97;17.58;;;;;;;;;;4972595;28;20429;-72
2023/04/09 04:14:18;;;;;;;30.45;15.68;;;;;;;;;;4990297;28;20049;-72
2023/04/09 04:16:49;;;;;;;108.50;17.02;;;;;;;;;;4973180;28;20038;-73
2023/04/09 04:19:18;;;;;;;72.43;16.40;;;;;;;;;;4980584;28;20092;-69
2023/04/09 04:21:47;;;;;;;146.95;15.93;;;;;;;;;;4974432;28;20042;-71
2023/04/09 04:24:12;;;;;;;163.32;16.40;;;;;;;;;;4991679;28;20108;-74
2023/04/09 04:26:39;;;;;;;226.10;16.77;;;;;;;;;;4973515;28;20134;-69
2023/04/09 04:29:05;;;;;;;209.02;15.77;;;;;;;;;;4974417;28;20141;-71
2023/04/09 04:31:49;;;;;;;155.13;16.10;;;;;;;;;;4972381;28;20038;-76
2023/04/09 04:34:18;;;;;;;107.80;15.02;;;;;;;;;;4963491;28;20050;-75
2023/04/09 04:36:48;;;;;;;327.70;17.05;;;;;;;;;;4988607;28;20128;-70
2023/04/09 04:39:13;;;;;;;32.67;14.18;;;;;;;;;;4978276;28;20785;-76
2023/04/09 04:42:01;;;;;;;173.85;15.93;;;;;;;;;;4989859;28;20558;-74
2023/04/09 04:44:27;;;;;;;135.32;15.95;;;;;;;;;;4976610;28;20136;-73
2023/04/09 04:47:04;;;;;;;266.90;16.00;;;;;;;;;;4971252;28;20102;-73
2023/04/09 04:49:30;;;;;;;325.75;20.65;;;;;;;;;;4988267;28;20038;-76
2023/04/09 04:51:56;;;;;;;222.15;17.25;;;;;;;;;;4968015;28;20058;-75
2023/04/09 04:54:22;;;;;;;105.47;15.95;;;;;;;;;;4975003;28;20046;-77
2023/04/09 04:56:51;;;;;;;86.22;15.20;;;;;;;;;;4976845;28;20097;-71
2023/04/09 04:59:29;;;;;;;64.65;14.20;;;;;;;;;;4981302;28;20499;-70
2023/04/09 05:02:03;;;;;;;147.73;13.60;;;;;;;;;;4992576;28;20042;-70
2023/04/09 05:04:35;;;;;;;234.43;15.38;;;;;;;;;;4978091;28;20054;-70
2023/04/09 05:07:01;;;;;;;49.90;12.52;;;;;;;;;;4972578;28;20078;-78
2023/04/09 05:09:26;;;;;;;56.55;11.27;;;;;;;;;;4992766;28;21068;-72
2023/04/09 05:12:00;;;;;;;84.43;12.40;;;;;;;;;;4979634;28;20407;-74
2023/04/09 05:14:25;;;;;;;120.38;12.77;;;;;;;;;;4990795;28;20069;-72
2023/04/09 05:16:51;;;;;;;55.15;12.32;;;;;;;;;;4975665;28;20499;-72
2023/04/09 05:19:20;;;;;;;75.15;13.20;;;;;;;;;;4970746;28;20057;-76
2023/04/09 05:21:48;;;;;;;94.28;13.73;;;;;;;;;;4990909;28;20137;-71
2023/04/09 05:24:19;;;;;;;98.03;12.57;;;;;;;;;;4975080;28;20069;-75
2023/04/09 05:26:45;;;;;;;57.42;12.32;;;;;;;;;;4994751;28;20427;-73
2023/04/09 05:29:11;;;;;;;64.22;11.93;;;;;;;;;;4976594;28;20050;-74
2023/04/09 05:31:39;;;;;;;27.33;11.18;;;;;;;;;;4968611;28;20046;-75
2023/04/09 05:34:08;;;;;;;60.40;11.48;;;;;;;;;;4995160;28;20601;-74
2023/04/09 05:36:41;;;;;;;192.55;13.15;;;;;;;;;;4967337;28;20049;-74
2023/04/09 05:39:06;;;;;;;53.28;11.88;;;;;;;;;;4977027;28;20046;-72
2023/04/09 05:41:32;;;;;;;88.22;11.45;;;;;;;;;;4979196;28;20046;-72
2023/04/09 05:44:16;;;;;;;119.50;11.23;;;;;;;;;;4974090;28;20434;-72
2023/04/09 05:46:42;;;;;;;100.53;10.68;;;;;;;;;;4976128;28;20046;-71
2023/04/09 05:49:07;;;;;;;28.80;10.13;;;;;;;;;;4979011;28;20057;-74
2023/04/09 05:51:34;;;;;;;30.08;10.93;;;;;;;;;;4961309;28;20086;-74
2023/04/09 05:54:01;;;;;;;27.17;11.32;;;;;;;;;;4995070;28;20133;-71
2023/04/09 05:56:31;;;;;;;73.32;9.93;;;;;;;;;;4994864;28;20049;-73
2023/04/09 05:58:56;;;;;;;46.10;9.52;;;;;;;;;;4995073;28;20046;-71
2023/04/09 06:01:22;;;;;;;94.13;9.13;;;;;;;;;;4992557;28;20042;-72
2023/04/09 06:03:48;;;;;;;38.08;9.23;;;;;;;;;;4993938;28;20052;-73
2023/04/09 06:06:13;;;;;;;39.88;8.70;;;;;;;;;;4971026;28;20050;-72
2023/04/09 06:08:39;;;;;;;68.22;9.27;;;;;;;;;;4993151;28;20069;-70
2023/04/09 06:11:08;;;;;;;30.92;8.38;;;;;;;;;;4994903;28;20058;-71
2023/04/09 06:13:33;;;;;;;17.90;8.15;;;;;;;;;;4973166;28;20567;-74
2023/04/09 06:15:59;;;;;;;30.30;8.30;;;;;;;;;;4972233;28;20133;-72
2023/04/09 06:18:25;;;;;;;65.18;9.32;;;;;;;;;;4978039;28;20061;-74
2023/04/09 06:21:02;;;;;;;67.25;8.45;;;;;;;;;;4965255;28;20131;-74
2023/04/09 06:23:28;;;;;;;41.72;8.45;;;;;;;;;;4964381;28;20539;-71
2023/04/09 06:25:53;;;;;;;13.93;8.13;;;;;;;;;;4963676;28;20554;-71
2023/04/09 06:28:20;;;;;;;26.88;8.38;;;;;;;;;;4965801;28;20927;-75
2023/04/09 06:30:45;;;;;;;135.13;14.98;;;;;;;;;;4964297;28;20113;-72
2023/04/09 06:33:11;;;;;;;50.00;8.93;;;;;;;;;;4967623;28;20050;-74
2023/04/09 06:35:36;;;;;;;92.97;9.95;;;;;;;;;;4971940;28;20133;-72
2023/04/09 06:38:02;;;;;;;209.93;12.68;;;;;;;;;;4977201;28;20052;-72
2023/04/09 06:40:27;;;;;;;41.05;10.07;;;;;;;;;;4978274;28;20049;-74
2023/04/09 06:42:53;;;;;;;30.42;8.95;;;;;;;;;;4975459;28;20062;-71
2023/04/09 06:45:22;;;;;;;128.98;10.90;;;;;;;;;;4984128;28;20169;-71
2023/04/09 06:47:48;;;;;;;117.22;9.88;;;;;;;;;;4971126;28;20498;-75
2023/04/09 06:50:14;;;;;;;126.70;10.30;;;;;;;;;;4968768;28;20476;-72
2023/04/09 06:52:39;;;;;;;45.30;8.25;;;;;;;;;;4972498;28;20157;-71
2023/04/09 06:55:05;;;;;;;114.57;9.70;;;;;;;;;;4970336;28;20050;-72
2023/04/09 06:57:31;;;;;;;114.93;9.23;;;;;;;;;;4972511;28;20194;-71
2023/04/09 06:59:56;;;;;;;158.23;10.55;;;;;;;;;;4970897;28;20050;-77
2023/04/09 07:02:21;;;;;;;118.68;9.38;;;;;;;;;;4969752;28;20050;-72
2023/04/09 07:04:47;;;;;;;54.25;8.32;;;;;;;;;;4971771;28;20050;-70
2023/04/09 07:07:12;;;;;;;93.53;9.27;;;;;;;;;;4969804;28;20066;-74
2023/04/09 07:09:38;;;;;;;28.65;8.43;;;;;;;;;;4972061;28;20057;-78
2023/04/09 07:12:03;;;;;;;73.07;8.70;;;;;;;;;;4969653;28;20050;-71
2023/04/09 07:14:29;;;;;;;50.90;8.57;;;;;;;;;;4968752;28;20149;-74
2023/04/09 07:16:54;;;;;;;57.25;8.93;;;;;;;;;;4968074;28;20077;-72
2023/04/09 07:19:20;;;;;;;37.45;8.52;;;;;;;;;;4967490;28;20042;-78
2023/04/09 07:21:45;;;;;;;44.47;9.80;;;;;;;;;;4963625;28;20047;-76
2023/04/09 07:24:10;;;;;;;35.47;9.65;;;;;;;;;;4966165;28;20045;-77
2023/04/09 07:26:36;;;;;;;17.92;8.40;;;;;;;;;;4963068;28;20117;-72
2023/04/09 07:29:03;;;;;;;15.40;7.85;;;;;;;;;;4963841;28;20054;-74
2023/04/09 07:31:28;;;;;;;24.33;9.38;;;;;;;;;;4963127;28;20054;-72
2023/04/09 07:33:54;;;;;;;14.52;9.20;;;;;;;;;;4962716;28;20047;-72
2023/04/09 07:36:19;;;;;;;12.65;8.80;;;;;;;;;;4963053;28;20046;-74
2023/04/09 07:38:44;;;;;;;10.80;7.97;;;;;;;;;;4963381;28;20119;-71
2023/04/09 07:41:10;;;;;;;9.90;7.57;;;;;;;;;;4965120;28;20476;-75
2023/04/09 07:43:35;;;;;;;8.45;7.45;;;;;;;;;;4963434;28;20057;-74
2023/04/09 07:46:01;;;;;;;9.20;7.47;;;;;;;;;;4965850;28;20038;-72
2023/04/09 07:48:27;;;;;;;9.90;7.80;;;;;;;;;;4968324;28;20047;-70
2023/04/09 07:50:52;;;;;;;8.38;7.47;;;;;;;;;;4965134;28;20047;-71
2023/04/09 07:53:17;;;;;;;7.63;6.72;;;;;;;;;;4966128;28;20108;-73
2023/04/09 07:55:43;;;;;;;9.80;7.90;;;;;;;;;;4966310;28;20137;-75
2023/04/09 07:58:09;;;;;;;10.20;7.82;;;;;;;;;;4980360;28;20301;-71
2023/04/09 08:00:34;;;;;;;8.45;7.50;;;;;;;;;;4966050;28;20047;-73
2023/04/09 08:03:02;;;;;;;8.52;7.45;;;;;;;;;;4964417;28;20133;-73
2023/04/09 08:05:27;;;;;;;8.23;7.03;;;;;;;;;;4963949;28;20042;-74
2023/04/09 08:07:53;;;;;;;9.80;6.75;;;;;;;;;;4965834;28;20410;-71
2023/04/09 08:10:18;;;;;;;8.57;7.00;;;;;;;;;;4968640;28;20049;-71
2023/04/09 08:12:44;;;;;;;8.57;7.60;;;;;;;;;;4964284;28;20058;-70
2023/04/09 08:15:10;;;;;;;8.68;7.03;;;;;;;;;;4967953;28;20066;-72
2023/04/09 08:17:36;;;;;;;8.93;7.05;;;;;;;;;;4964180;28;20392;-73
2023/04/09 08:20:03;;;;;;;7.85;6.90;;;;;;;;;;4966778;28;20047;-73
2023/04/09 08:22:29;;;;;;;9.23;7.78;;;;;;;;;;4967262;28;20035;-71
2023/04/09 08:24:56;;;;;;;10.25;8.55;;;;;;;;;;4969927;28;20711;-73
2023/04/09 08:27:21;;;;;;;9.48;7.70;;;;;;;;;;4966084;28;20049;-74
2023/04/09 08:29:47;;;;;;;9.60;7.38;;;;;;;;;;4965840;28;20050;-70
2023/04/09 08:32:13;;;;;;;10.35;8.95;;;;;;;;;;4961147;28;20054;-71
2023/04/09 08:34:38;;;;;;;11.63;9.25;;;;;;;;;;4965192;28;20043;-71
2023/04/09 08:37:03;;;;;;;12.68;10.00;;;;;;;;;;4973921;28;20053;-74
2023/04/09 08:39:29;;;;;;;12.32;9.73;;;;;;;;;;4978923;28;20887;-71
2023/04/09 08:41:58;;;;;;;12.77;9.55;;;;;;;;;;4972407;28;20050;-73
2023/04/09 08:44:28;;;;;;;13.38;10.25;;;;;;;;;;4974996;28;20086;-73
2023/04/09 08:46:54;;;;;;;14.68;10.00;;;;;;;;;;4964195;28;20054;-71
2023/04/09 08:49:20;;;;;;;12.80;10.15;;;;;;;;;;4975656;28;20112;-71
2023/04/09 08:51:47;;;;;;;12.15;9.45;;;;;;;;;;4972953;28;20054;-69
2023/04/09 08:54:17;;;;;;;10.88;8.88;;;;;;;;;;4975704;28;20051;-70
2023/04/09 08:56:43;;;;;;;9.85;8.27;;;;;;;;;;4966845;28;20050;-69
2023/04/09 08:59:08;;;;;;;10.82;8.30;;;;;;;;;;4972731;28;20377;-69
2023/04/09 09:01:34;;;;;;;9.60;8.60;;;;;;;;;;4974014;28;20104;-68
2023/04/09 09:04:02;;;;;;;10.13;7.95;;;;;;;;;;4978902;28;20766;-69
2023/04/09 09:06:36;;;;;;;9.40;7.25;;;;;;;;;;4968972;28;20042;-76
2023/04/09 09:09:12;;;;;;;9.02;6.78;;;;;;;;;;4963997;28;20057;-69
2023/04/09 09:11:45;;;;;;;9.98;8.40;;;;;;;;;;4972144;28;20058;-69
2023/04/09 09:14:15;;;;;;;9.65;8.43;;;;;;;;;;4970049;28;20054;-69
2023/04/09 09:16:43;;;;;;;9.93;7.88;;;;;;;;;;4974079;28;20136;-71
2023/04/09 09:19:24;;;;;;;9.32;7.53;;;;;;;;;;4974431;28;20046;-71
2023/04/09 09:21:56;;;;;;;12.23;8.88;;;;;;;;;;4966597;28;20050;-69
2023/04/09 09:24:22;;;;;;;11.20;9.00;;;;;;;;;;4970571;28;20053;-71
2023/04/09 09:26:47;;;;;;;11.65;8.50;;;;;;;;;;4969654;28;20046;-69
2023/04/09 09:29:13;;;;;;;12.30;9.73;;;;;;;;;;4974717;28;20107;-69
2023/04/09 09:31:48;;;;;;;11.65;8.93;;;;;;;;;;4973981;28;20058;-69
2023/04/09 09:34:15;;;;;;;12.27;9.30;;;;;;;;;;4971265;28;20038;-71
2023/04/09 09:36:40;;;;;;;13.90;9.80;;;;;;;;;;4973197;28;20137;-71
2023/04/09 09:39:09;;;;;;;12.68;9.32;;;;;;;;;;4969513;28;20097;-72
2023/04/09 09:41:35;;;;;;;12.05;9.68;;;;;;;;;;4972113;28;20049;-71
2023/04/09 09:44:00;;;;;;;13.73;9.88;;;;;;;;;;4970539;28;20578;-71
2023/04/09 09:46:27;;;;;;;13.35;9.27;;;;;;;;;;4965580;28;20082;-71
2023/04/09 09:48:52;;;;;;;12.50;9.77;;;;;;;;;;4967239;28;20050;-71
2023/04/09 09:51:21;;;;;;;15.75;10.70;;;;;;;;;;4966474;28;20641;-70
2023/04/09 09:53:50;;;;;;;12.02;8.85;;;;;;;;;;4972547;28;20483;-72
2023/04/09 09:56:21;;;;;;;13.13;10.27;;;;;;;;;;4968087;28;20046;-70
2023/04/09 09:59:04;;;;;;;13.85;10.00;;;;;;;;;;4967541;28;20051;-71
2023/04/09 10:01:31;;;;;;;12.82;9.95;;;;;;;;;;4973140;28;20053;-70
2023/04/09 10:04:00;;;;;;;13.18;9.48;;;;;;;;;;4962403;28;20504;-72
2023/04/09 10:06:26;;;;;;;11.48;9.00;;;;;;;;;;4965048;28;20081;-71
2023/04/09 10:08:56;;;;;;;14.52;10.52;;;;;;;;;;4975028;28;20046;-70
2023/04/09 10:14:55;;;;;;;14.18;9.98;;;;;;;;;;5017350;28;20060;-73
2023/04/09 10:17:20;;;;;;;16.77;10.15;;;;;;;;;;5022392;28;20072;-69
2023/04/09 10:19:55;;;;;;;13.45;10.65;;;;;;;;;;5005692;28;20498;-70
2023/04/09 10:22:25;;;;;;;13.60;10.35;;;;;;;;;;5003027;28;20967;-71
2023/04/09 10:24:51;;;;;;;12.70;9.90;;;;;;;;;;5021690;28;20148;-69
2023/04/09 10:27:17;;;;;;;13.35;9.82;;;;;;;;;;5022488;28;20259;-72
2023/04/09 10:29:44;;;;;;;13.10;10.45;;;;;;;;;;5022757;28;20046;-72
2023/04/09 10:32:10;;;;;;;17.45;9.75;;;;;;;;;;5022555;28;20060;-70
2023/04/09 10:34:43;;;;;;;14.60;10.68;;;;;;;;;;5021796;28;20067;-72
2023/04/09 10:37:20;;;;;;;14.60;10.93;;;;;;;;;;5022090;28;20084;-73
2023/04/09 10:39:47;;;;;;;12.68;8.95;;;;;;;;;;5021581;28;20809;-71
2023/04/09 10:42:31;;;;;;;13.60;10.10;;;;;;;;;;5037725;28;20148;-72
2023/04/09 10:45:07;;;;;;;17.25;12.02;;;;;;;;;;4989534;28;20045;-70
2023/04/09 10:47:34;;;;;;;15.07;11.13;;;;;;;;;;5021870;28;20388;-71
2023/04/09 10:50:17;;;;;;;16.55;11.35;;;;;;;;;;5019860;28;20049;-71
2023/04/09 10:52:43;;;;;;;12.93;9.63;;;;;;;;;;5019909;28;20053;-72
2023/04/09 10:55:29;;;;;;;13.02;9.27;;;;;;;;;;5020271;28;20556;-72
2023/04/09 10:57:54;;;;;;;12.75;9.57;;;;;;;;;;5022046;28;20049;-73
2023/04/09 11:00:20;;;;;;;14.88;10.52;;;;;;;;;;5018934;28;20404;-72
2023/04/09 11:03:18;;;;;;;14.25;10.48;;;;;;;;;;5020307;28;20053;-72
2023/04/09 11:05:48;;;;;;;15.80;11.10;;;;;;;;;;5021973;28;20049;-72
2023/04/09 11:08:16;;;;;;;16.90;11.43;;;;;;;;;;5021968;28;20142;-71
2023/04/09 11:10:43;;;;;;;15.75;11.30;;;;;;;;;;5019084;28;20053;-73
2023/04/09 11:13:16;;;;;;;16.33;11.35;;;;;;;;;;5019859;28;20087;-72
2023/04/09 11:15:44;;;;;;;15.68;11.02;;;;;;;;;;5019491;28;20102;-72
2023/04/09 11:18:26;;;;;;;18.60;11.77;;;;;;;;;;5022151;28;20064;-73
2023/04/09 11:21:00;;;;;;;16.13;11.50;;;;;;;;;;5016715;28;20449;-72
2023/04/09 11:23:26;;;;;;;15.48;10.93;;;;;;;;;;5020770;28;20064;-73
2023/04/09 11:25:52;;;;;;;14.57;10.23;;;;;;;;;;5020166;28;20111;-70
2023/04/09 11:28:18;;;;;;;16.08;11.18;;;;;;;;;;5020248;28;20045;-71
2023/04/09 11:30:45;;;;;;;15.65;11.77;;;;;;;;;;5019266;28;20052;-71
2023/04/09 11:33:11;;;;;;;14.57;10.98;;;;;;;;;;5020622;28;20083;-70
2023/04/09 11:35:37;;;;;;;16.70;11.13;;;;;;;;;;5020864;28;20144;-72
2023/04/09 11:38:10;;;;;;;17.50;11.98;;;;;;;;;;5020991;28;20179;-70
2023/04/09 11:40:36;;;;;;;16.00;10.98;;;;;;;;;;5020594;28;20550;-71
2023/04/09 11:43:02;;;;;;;16.23;11.27;;;;;;;;;;5020244;28;20046;-71
2023/04/09 11:45:29;;;;;;;14.43;10.63;;;;;;;;;;5021636;28;20518;-71
2023/04/09 11:47:55;;;;;;;17.00;11.50;;;;;;;;;;5020088;28;20473;-71
2023/04/09 11:50:21;;;;;;;14.68;10.75;;;;;;;;;;5021215;28;20038;-71
2023/04/09 11:52:47;;;;;;;17.25;11.07;;;;;;;;;;5019889;28;20084;-71
2023/04/09 11:55:27;;;;;;;15.95;11.98;;;;;;;;;;5021093;28;20073;-71
2023/04/09 11:57:57;;;;;;;17.67;11.80;;;;;;;;;;5021933;28;20620;-71
2023/04/09 12:00:23;;;;;;;15.77;11.05;;;;;;;;;;5020950;28;20042;-71
2023/04/09 12:02:57;;;;;;;16.13;11.75;;;;;;;;;;5020179;28;20053;-71
2023/04/09 12:05:24;;;;;;;16.48;11.63;;;;;;;;;;5019219;28;20064;-70
2023/04/09 12:07:51;;;;;;;17.63;12.20;;;;;;;;;;5021415;28;20485;-71
2023/04/09 12:10:17;;;;;;;17.67;11.45;;;;;;;;;;5021548;28;20835;-71
2023/04/09 12:12:45;;;;;;;17.02;11.73;;;;;;;;;;5019792;28;20061;-71
2023/04/09 12:15:17;;;;;;;19.02;12.02;;;;;;;;;;5021373;28;20122;-72
2023/04/09 12:17:46;;;;;;;16.45;11.23;;;;;;;;;;5023212;28;20509;-71
2023/04/09 12:20:11;;;;;;;14.60;10.57;;;;;;;;;;5023428;28;20222;-72
2023/04/09 12:22:39;;;;;;;16.10;11.50;;;;;;;;;;5021495;28;20041;-71
2023/04/09 12:25:06;;;;;;;15.43;10.88;;;;;;;;;;5019485;28;20041;-71
2023/04/09 12:27:31;;;;;;;15.40;10.63;;;;;;;;;;5019749;28;20120;-74
2023/04/09 12:29:57;;;;;;;14.38;10.82;;;;;;;;;;5017288;28;20099;-74
2023/04/09 12:32:22;;;;;;;14.00;10.65;;;;;;;;;;5014659;28;20588;-73
2023/04/09 12:34:48;;;;;;;23.13;10.35;;;;;;;;;;5016174;28;20056;-73
2023/04/09 12:37:14;;;;;;;13.95;10.23;;;;;;;;;;5018614;28;20491;-75
2023/04/09 12:39:40;;;;;;;15.18;11.13;;;;;;;;;;5018532;28;20052;-74
2023/04/09 12:42:05;;;;;;;17.02;11.10;;;;;;;;;;5001731;28;20132;-72
2023/04/09 12:44:32;;;;;;;16.52;10.20;;;;;;;;;;5018272;28;20054;-71
2023/04/09 12:46:57;;;;;;;14.65;10.73;;;;;;;;;;5018408;28;20080;-72
2023/04/09 12:49:23;;;;;;;18.23;11.90;;;;;;;;;;5016707;28;20045;-73
2023/04/09 12:51:49;;;;;;;15.40;10.80;;;;;;;;;;5018659;28;20483;-73
2023/04/09 12:54:15;;;;;;;15.38;10.25;;;;;;;;;;5019314;28;20048;-72
2023/04/09 12:56:41;;;;;;;16.20;10.95;;;;;;;;;;5019364;28;20717;-73
2023/04/09 12:59:06;;;;;;;15.68;11.10;;;;;;;;;;5017803;28;20211;-72
2023/04/09 13:01:32;;;;;;;18.27;12.07;;;;;;;;;;5018865;28;20065;-72
2023/04/09 13:03:57;;;;;;;17.77;11.70;;;;;;;;;;5016061;28;20053;-72
2023/04/09 13:06:23;;;;;;;18.70;12.73;;;;;;;;;;5016497;28;20056;-73
2023/04/09 13:08:48;;;;;;;17.55;12.15;;;;;;;;;;5017660;28;20084;-70
2023/04/09 13:11:13;;;;;;;16.80;12.10;;;;;;;;;;5016937;28;20079;-73
2023/04/09 13:13:39;;;;;;;14.00;10.07;;;;;;;;;;5017690;28;20075;-71
2023/04/09 13:16:05;;;;;;;16.15;11.45;;;;;;;;;;5017110;28;20898;-72
2023/04/09 13:18:30;;;;;;;16.02;10.77;;;;;;;;;;5016787;28;20049;-70
2023/04/09 13:20:56;;;;;;;16.95;11.25;;;;;;;;;;5016837;28;20053;-74
2023/04/09 13:23:21;;;;;;;18.33;12.13;;;;;;;;;;5017643;28;20411;-72
2023/04/09 13:25:47;;;;;;;15.80;11.30;;;;;;;;;;5017616;28;20041;-73
2023/04/09 13:28:12;;;;;;;16.58;10.65;;;;;;;;;;5010835;28;20245;-73
2023/04/09 13:30:37;;;;;;;15.02;11.05;;;;;;;;;;5015862;28;20997;-70
2023/04/09 13:33:03;;;;;;;15.32;10.38;;;;;;;;;;5015805;28;20187;-70
2023/04/09 13:35:29;;;;;;;14.32;10.75;;;;;;;;;;5015953;28;20099;-72
2023/04/09 13:37:54;;;;;;;17.17;10.93;;;;;;;;;;5015579;28;20529;-71
2023/04/09 13:40:20;;;;;;;16.90;11.02;;;;;;;;;;5015709;28;20041;-70
2023/04/09 13:42:45;;;;;;;14.55;10.15;;;;;;;;;;5015138;28;20046;-71
2023/04/09 13:45:11;;;;;;;15.43;10.90;;;;;;;;;;5018502;28;20098;-70
2023/04/09 13:47:36;;;;;;;13.55;9.57;;;;;;;;;;5021520;28;20042;-72
2023/04/09 13:50:02;;;;;;;14.57;9.70;;;;;;;;;;5017694;28;20498;-70
2023/04/09 13:52:28;;;;;;;13.13;9.75;;;;;;;;;;5020541;28;20048;-71
2023/04/09 13:54:53;;;;;;;12.60;8.82;;;;;;;;;;5020058;28;20053;-73
2023/04/09 13:57:19;;;;;;;10.27;7.80;;;;;;;;;;5019930;28;20049;-70
2023/04/09 13:59:44;;;;;;;15.15;9.00;;;;;;;;;;5017800;28;20049;-71
2023/04/09 14:02:10;;;;;;;11.68;8.65;;;;;;;;;;5018160;28;20107;-74
2023/04/09 14:04:35;;;;;;;16.77;11.02;;;;;;;;;;5018882;28;20053;-72
2023/04/09 14:07:01;;;;;;;13.40;9.27;;;;;;;;;;5020370;28;20057;-72
2023/04/09 14:09:26;;;;;;;11.10;7.80;;;;;;;;;;5019752;28;20041;-74
2023/04/09 14:11:53;;;;;;;10.88;8.23;;;;;;;;;;5019637;28;20100;-73
2023/04/09 14:14:19;;;;;;;11.95;8.10;;;;;;;;;;5020328;28;20064;-72
2023/04/09 14:16:45;;;;;;;10.27;8.00;;;;;;;;;;5013077;28;20057;-71
2023/04/09 14:19:11;;;;;;;11.77;8.10;;;;;;;;;;5020401;28;20099;-72
2023/04/09 14:21:36;;;;;;;9.02;7.57;;;;;;;;;;5019272;28;20745;-72
2023/04/09 14:24:01;;;;;;;11.77;8.15;;;;;;;;;;5018994;28;20080;-74
2023/04/09 14:26:28;;;;;;;9.40;6.95;;;;;;;;;;5017083;28;20041;-74
2023/04/09 14:28:53;;;;;;;8.05;6.55;;;;;;;;;;5018177;28;20473;-74